Elkins, West Virginia
Current Conditions -  °F | °C
As of 6:51 PM on Wednesday 26 Nov 2014 (Local Time) from KEKN Reporting Station
Overcast Overcast  
Wind Chill: 33°   Ceiling: 900
Heat Index: 33°   Visibility: 9mi
Dew Point: 33°   Wind: 0mph
Humidity: 100%   Direction: NA
Pressure: 29.98"   Gusts: NA
Location:  38.92°N, 79.84°W
Report Text: KEKN 262351Z AUTO 00000KT 9SM BKN009 BKN018 OVC024 01/01 A2998 RMK AO2 SLP172 60008 T00060006 10011 20006 50003 TSNO
Loading
Personal Weather Stations






























Interactive Weather Map New forecast layout! Learn more

10-Day Weather Forecast

Advertisements
Track Severe Weather on mobile